Time;durP1;ratioP1;P1;durP2;ratioP2;P2;SDS_P1;SDS_P2;PMS_P1;PMS_P2;Temp;Humidity;BMP_temperature;BMP_pressure;BME280_temperature;BME280_humidity;BME280_pressure;Samples;Min_cycle;Max_cycle;Signal;HPM_P1;HPM_P2
2021/05/25 00:00:58;;;;;;;14.95;6.17;;;;;;;11.95;67.48;96893.52;1749546;80;25610;-79
2021/05/25 00:03:25;;;;;;;9.83;5.78;;;;;;;11.90;67.63;96893.68;1749148;80;28146;-81
2021/05/25 00:05:51;;;;;;;13.95;6.03;;;;;;;11.93;67.80;96893.75;1749266;80;25783;-81
2021/05/25 00:08:18;;;;;;;10.65;6.08;;;;;;;11.98;67.82;96903.33;1749248;80;25626;-81
2021/05/25 00:10:45;;;;;;;14.25;6.50;;;;;;;12.02;68.00;96901.00;1749348;80;25724;-81
2021/05/25 00:13:11;;;;;;;11.43;5.58;;;;;;;11.98;68.01;96899.80;1749513;80;25621;-81
2021/05/25 00:15:38;;;;;;;7.85;5.15;;;;;;;11.98;68.19;96891.69;1749540;80;27277;-83
2021/05/25 00:18:06;;;;;;;10.23;4.97;;;;;;;11.98;68.11;96893.03;1749513;80;25659;-81
2021/05/25 00:20:33;;;;;;;7.15;4.62;;;;;;;11.99;68.21;96893.34;1744049;80;25631;-81
2021/05/25 00:22:59;;;;;;;10.30;5.55;;;;;;;11.99;68.14;96896.87;1752860;81;25722;-82
2021/05/25 00:25:26;;;;;;;10.63;6.00;;;;;;;12.01;68.20;96902.05;1743089;81;25571;-81
2021/05/25 00:27:54;;;;;;;10.95;5.40;;;;;;;11.97;68.18;96903.56;1734122;81;27344;-80
2021/05/25 00:30:22;;;;;;;10.00;5.00;;;;;;;11.96;68.18;96888.38;1733167;81;25638;-82
2021/05/25 00:32:49;;;;;;;10.38;4.53;;;;;;;11.98;68.26;96875.45;1730016;81;25741;-81
2021/05/25 00:35:16;;;;;;;9.70;4.70;;;;;;;11.98;68.26;96886.28;1739202;81;25665;-80
2021/05/25 00:37:43;;;;;;;8.05;5.00;;;;;;;11.96;68.26;96889.73;1740968;81;25676;-80
2021/05/25 00:40:12;;;;;;;11.05;5.70;;;;;;;11.94;68.33;96887.30;1760363;81;28186;-81
2021/05/25 00:42:41;;;;;;;10.88;5.22;;;;;;;11.94;68.35;96879.70;1730355;81;25655;-85
2021/05/25 00:45:09;;;;;;;11.48;5.70;;;;;;;11.83;68.41;96877.28;1748609;81;25767;-84
2021/05/25 00:47:37;;;;;;;9.63;5.12;;;;;;;11.78;68.68;96884.72;1756490;79;26124;-84
2021/05/25 00:50:11;;;;;;;11.53;5.87;;;;;;;11.73;68.73;96875.61;1743060;81;25728;-80
2021/05/25 00:52:53;;;;;;;11.10;6.12;;;;;;;11.72;68.84;96868.55;1731442;81;27405;-84
2021/05/25 00:55:24;;;;;;;9.63;4.97;;;;;;;11.72;68.94;96884.24;1748585;81;25729;-81
2021/05/25 00:57:52;;;;;;;9.55;5.03;;;;;;;11.63;68.92;96885.63;1737933;81;25642;-80
2021/05/25 01:00:24;;;;;;;10.30;4.67;;;;;;;11.57;69.08;96889.27;1750553;81;26172;-80
2021/05/25 01:02:51;;;;;;;8.48;5.17;;;;;;;11.46;69.10;96883.30;1743071;81;25567;-82
2021/05/25 01:05:18;;;;;;;9.18;5.17;;;;;;;11.44;69.25;96860.56;1736442;81;28229;-81
2021/05/25 01:07:45;;;;;;;10.43;5.08;;;;;;;11.48;69.36;96862.25;1755080;81;26021;-82
2021/05/25 01:10:14;;;;;;;15.72;6.70;;;;;;;11.40;69.32;96859.88;1753160;81;25613;-82
2021/05/25 01:13:04;;;;;;;8.23;5.28;;;;;;;11.30;69.41;96836.13;1733348;81;26395;-80
2021/05/25 01:15:16;;;;;;;9.20;5.50;;;;;;;11.31;69.53;96837.77;1723456;81;25783;-80
2021/05/25 01:17:43;;;;;;;17.02;5.08;;;;;;;11.29;69.53;96837.17;1730840;81;27557;-80
2021/05/25 01:20:10;;;;;;;7.53;4.33;;;;;;;11.34;69.54;96834.62;1750304;79;25953;-81
2021/05/25 01:22:37;;;;;;;8.05;4.60;;;;;;;11.39;69.54;96831.21;1741386;81;25681;-80
2021/05/25 01:25:12;;;;;;;7.87;4.92;;;;;;;11.28;69.47;96845.50;1730083;81;26157;-80
2021/05/25 01:27:40;;;;;;;6.70;4.65;;;;;;;11.14;69.62;96857.84;1743723;81;25724;-80
2021/05/25 01:30:09;;;;;;;8.35;4.55;;;;;;;11.10;69.79;96838.28;1734996;81;28059;-81
2021/05/25 01:32:36;;;;;;;8.35;4.53;;;;;;;11.06;69.90;96829.80;1739904;81;25595;-80
2021/05/25 01:35:04;;;;;;;6.97;4.37;;;;;;;11.02;69.96;96847.51;1737965;81;25650;-83
2021/05/25 01:37:31;;;;;;;10.82;4.60;;;;;;;11.05;70.01;96852.46;1701028;82;26159;-81
2021/05/25 01:39:58;;;;;;;8.90;4.35;;;;;;;11.07;70.15;96847.66;1738502;81;25603;-81
2021/05/25 01:42:32;;;;;;;5.15;3.55;;;;;;;11.02;70.23;96850.20;1752090;81;27313;-82
2021/05/25 01:44:59;;;;;;;7.62;4.20;;;;;;;11.04;70.32;96857.56;1739570;81;25829;-80
2021/05/25 01:47:26;;;;;;;8.10;3.87;;;;;;;11.02;70.37;96871.81;1744818;81;25673;-81
2021/05/25 01:49:52;;;;;;;8.33;4.33;;;;;;;10.99;70.44;96856.61;1736449;81;26212;-80
2021/05/25 01:52:20;;;;;;;12.18;4.22;;;;;;;11.02;70.58;96861.01;1730131;81;25401;-83
2021/05/25 01:54:46;;;;;;;8.48;4.45;;;;;;;11.04;70.54;96861.61;1735242;81;28461;-81
2021/05/25 01:57:13;;;;;;;8.63;4.15;;;;;;;11.07;70.61;96855.77;1732307;81;25593;-81
2021/05/25 01:59:40;;;;;;;9.45;4.17;;;;;;;11.09;70.65;96859.59;1734340;81;25547;-80
2021/05/25 02:02:06;;;;;;;7.95;4.40;;;;;;;11.08;70.66;96885.78;1730845;81;25689;-80
2021/05/25 02:04:33;;;;;;;7.83;4.00;;;;;;;11.12;70.66;96888.30;1730017;81;25598;-80
2021/05/25 02:07:00;;;;;;;8.38;4.65;;;;;;;11.15;70.69;96864.07;1730065;81;27498;-83
2021/05/25 02:09:26;;;;;;;8.83;4.42;;;;;;;11.07;70.74;96860.34;1740904;81;25694;-83
2021/05/25 02:11:53;;;;;;;7.60;4.90;;;;;;;11.01;70.86;96844.50;1737273;81;25659;-82
2021/05/25 02:14:20;;;;;;;9.88;4.95;;;;;;;11.05;70.98;96852.46;1729955;81;26296;-83
2021/05/25 02:16:47;;;;;;;6.90;4.90;;;;;;;11.08;71.00;96924.94;1734691;81;25686;-81
2021/05/25 02:19:14;;;;;;;7.67;5.00;;;;;;;11.07;70.94;96898.98;1734605;81;27376;-81
2021/05/25 02:21:41;;;;;;;13.13;5.35;;;;;;;11.05;71.11;96847.06;1729835;81;25867;-82
2021/05/25 02:24:08;;;;;;;6.47;4.22;;;;;;;11.04;71.25;96844.58;1736268;81;25708;-86
2021/05/25 02:26:35;;;;;;;16.02;6.67;;;;;;;10.95;71.30;96871.09;1734346;81;25661;-83
2021/05/25 02:29:01;;;;;;;13.30;6.70;;;;;;;10.93;71.35;96839.42;1752910;80;25716;-81
2021/05/25 02:31:28;;;;;;;9.78;5.58;;;;;;;10.95;71.50;96796.82;1740461;81;27305;-81
2021/05/25 02:33:55;;;;;;;11.12;5.75;;;;;;;10.98;71.59;96782.88;1736835;81;26435;-82
2021/05/25 02:36:22;;;;;;;11.68;5.30;;;;;;;11.00;71.44;96788.84;1729996;81;25514;-81
2021/05/25 02:38:49;;;;;;;9.80;5.40;;;;;;;11.03;71.38;96774.06;1729809;81;25536;-80
2021/05/25 02:41:15;;;;;;;11.80;6.35;;;;;;;11.03;71.32;96774.89;1730169;81;25670;-81
2021/05/25 02:43:42;;;;;;;10.10;5.90;;;;;;;11.04;71.41;96796.80;1735789;81;27510;-81
2021/05/25 02:46:08;;;;;;;9.20;5.83;;;;;;;10.97;71.31;96837.94;1745616;81;25598;-83
2021/05/25 02:48:35;;;;;;;11.05;5.67;;;;;;;10.98;71.50;96859.01;1730111;81;25630;-80
2021/05/25 02:51:01;;;;;;;12.13;5.53;;;;;;;10.99;71.53;96934.93;1735337;81;25636;-81
2021/05/25 02:53:28;;;;;;;12.45;5.72;;;;;;;11.01;71.55;96994.39;1733931;81;25743;-79
2021/05/25 02:55:55;;;;;;;13.08;5.78;;;;;;;11.03;71.64;97027.41;1738844;81;27323;-81
2021/05/25 02:58:21;;;;;;;8.90;5.42;;;;;;;11.02;71.85;96974.97;1730157;81;25906;-81
2021/05/25 03:00:48;;;;;;;8.55;5.05;;;;;;;10.96;72.02;96915.95;1730158;81;25666;-82
2021/05/25 03:03:16;;;;;;;8.80;4.83;;;;;;;10.98;72.19;96921.95;1730084;81;25601;-82
2021/05/25 03:05:44;;;;;;;9.58;4.62;;;;;;;11.00;72.39;96933.33;1731783;81;25860;-84
2021/05/25 03:08:13;;;;;;;10.98;4.70;;;;;;;10.97;72.39;96931.63;1737070;81;27431;-83
2021/05/25 03:10:44;;;;;;;6.60;4.22;;;;;;;10.99;72.52;96922.77;1729962;81;25731;-82
2021/05/25 03:13:11;;;;;;;9.70;4.25;;;;;;;11.00;72.62;96912.24;1730201;81;25772;-82
2021/05/25 03:15:45;;;;;;;8.93;4.47;;;;;;;11.03;72.66;96930.70;1729992;81;26344;-82
2021/05/25 03:18:13;;;;;;;12.35;5.15;;;;;;;11.05;72.78;96938.89;1734728;81;25979;-81
2021/05/25 03:20:42;;;;;;;10.68;5.15;;;;;;;10.98;73.00;96899.00;1733992;81;27368;-81
2021/05/25 03:23:09;;;;;;;9.78;5.17;;;;;;;10.91;73.08;96891.48;1737737;81;25700;-81
2021/05/25 03:25:36;;;;;;;10.75;6.25;;;;;;;10.92;73.21;96903.93;1739098;81;25677;-81
2021/05/25 03:28:04;;;;;;;7.70;4.85;;;;;;;10.95;73.16;96925.09;1739070;81;25685;-82
2021/05/25 03:30:31;;;;;;;8.73;5.22;;;;;;;11.01;73.18;96941.73;1739090;81;25707;-81
2021/05/25 03:32:58;;;;;;;10.95;5.00;;;;;;;10.99;73.29;96931.67;1738982;81;28166;-80
2021/05/25 03:35:27;;;;;;;10.13;5.58;;;;;;;11.01;73.42;96952.53;1739045;81;25792;-81
2021/05/25 03:37:55;;;;;;;8.58;5.70;;;;;;;11.04;73.51;96962.89;1739117;81;25591;-81
2021/05/25 03:40:22;;;;;;;16.07;8.20;;;;;;;11.07;73.69;96977.83;1739319;81;26090;-81
2021/05/25 03:42:52;;;;;;;11.57;5.70;;;;;;;10.99;73.68;96968.69;1739463;81;25703;-82
2021/05/25 03:45:20;;;;;;;9.75;5.40;;;;;;;10.95;73.88;96977.75;1739208;81;28212;-81
2021/05/25 03:47:47;;;;;;;8.38;5.08;;;;;;;10.93;74.04;96983.89;1738773;81;25955;-80
2021/05/25 03:50:16;;;;;;;8.15;5.42;;;;;;;10.90;74.07;96958.68;1739121;81;25657;-82
2021/05/25 03:52:49;;;;;;;17.60;7.37;;;;;;;10.91;74.23;96960.86;1739068;81;26191;-81
2021/05/25 03:55:31;;;;;;;16.40;7.35;;;;;;;10.92;74.26;96952.53;1739072;81;25688;-82
2021/05/25 04:00:34;;;;;;;9.73;6.28;;;;;;;10.98;74.31;96920.59;1739061;81;25650;-81
2021/05/25 04:03:02;;;;;;;9.85;6.10;;;;;;;11.02;74.26;96900.17;1738855;81;25748;-81
2021/05/25 04:05:29;;;;;;;8.43;5.00;;;;;;;11.04;74.35;96897.25;1734859;81;25629;-82
2021/05/25 04:07:56;;;;;;;9.18;4.72;;;;;;;11.04;74.36;96916.98;1747123;80;25676;-81
2021/05/25 04:10:22;;;;;;;6.80;4.92;;;;;;;11.04;74.51;96910.23;1739078;81;27308;-81
2021/05/25 04:12:49;;;;;;;5.28;4.20;;;;;;;11.01;74.49;96909.32;1739023;81;25797;-81
2021/05/25 04:15:16;;;;;;;8.85;4.35;;;;;;;10.97;74.52;96891.11;1739028;81;25565;-82
2021/05/25 04:17:42;;;;;;;5.72;3.80;;;;;;;11.01;74.62;96878.27;1738987;81;26217;-81
2021/05/25 04:20:11;;;;;;;6.35;4.05;;;;;;;11.06;74.68;96897.33;1739041;81;25749;-80
2021/05/25 04:22:38;;;;;;;6.80;4.17;;;;;;;11.11;74.68;96910.13;1736931;80;28013;-81
2021/05/25 04:25:07;;;;;;;10.98;4.75;;;;;;;11.14;74.86;96901.06;1739279;81;25726;-81
2021/05/25 04:27:34;;;;;;;10.95;4.87;;;;;;;11.13;74.82;96897.23;1730162;81;25661;-81
2021/05/25 04:30:00;;;;;;;9.88;4.30;;;;;;;11.16;74.90;96913.82;1750723;81;25585;-81
2021/05/25 04:32:27;;;;;;;5.60;3.77;;;;;;;11.17;74.95;96908.72;1744560;80;25647;-82
2021/05/25 04:34:54;;;;;;;5.22;3.92;;;;;;;11.18;74.90;96864.45;1749536;80;28060;-81
2021/05/25 04:37:20;;;;;;;8.88;3.90;;;;;;;11.19;74.98;96872.85;1738116;81;25717;-82
2021/05/25 04:39:48;;;;;;;7.28;4.03;;;;;;;11.14;74.90;96891.61;1731087;81;25694;-82
2021/05/25 04:42:14;;;;;;;7.00;3.95;;;;;;;11.16;74.94;96877.88;1734184;81;25682;-82
2021/05/25 04:44:41;;;;;;;6.28;4.28;;;;;;;11.17;75.00;96869.55;1732656;81;26391;-83
2021/05/25 04:47:07;;;;;;;10.35;6.10;;;;;;;11.22;75.08;96878.86;1730085;81;28149;-82
2021/05/25 04:49:36;;;;;;;8.78;5.72;;;;;;;11.26;75.25;96869.22;1729938;81;26277;-82
2021/05/25 04:52:04;;;;;;;9.43;6.12;;;;;;;11.30;75.37;96856.91;1737600;80;25755;-82
2021/05/25 04:54:30;;;;;;;7.50;5.80;;;;;;;11.34;75.43;96856.23;1731315;81;25429;-84
2021/05/25 04:56:57;;;;;;;8.78;6.20;;;;;;;11.40;75.43;96851.25;1739274;81;25623;-81
2021/05/25 04:59:24;;;;;;;8.70;4.80;;;;;;;11.48;75.50;96852.27;1740567;81;27298;-82
2021/05/25 05:01:51;;;;;;;8.15;6.12;;;;;;;11.54;75.43;96850.53;1740694;81;25638;-82
2021/05/25 05:04:18;;;;;;;9.68;5.70;;;;;;;11.57;75.54;96836.56;1751628;81;26268;-83
2021/05/25 05:06:44;;;;;;;10.25;6.70;;;;;;;11.55;75.49;96822.45;1730276;81;25627;-83
2021/05/25 05:09:11;;;;;;;11.97;6.90;;;;;;;11.58;75.56;96840.92;1730390;81;25646;-82
2021/05/25 05:11:37;;;;;;;38.73;14.60;;;;;;;11.60;75.51;96845.54;1730230;81;27482;-82
2021/05/25 05:14:04;;;;;;;28.95;12.63;;;;;;;11.62;75.36;96843.96;1729721;81;25592;-82
2021/05/25 05:16:30;;;;;;;26.15;10.80;;;;;;;11.67;75.39;96845.45;1730148;81;25637;-82
2021/05/25 05:18:57;;;;;;;16.52;9.23;;;;;;;11.73;75.36;96845.34;1730161;81;25579;-82
2021/05/25 05:21:23;;;;;;;25.65;16.25;;;;;;;;;;1730337;81;25313;-83
2021/05/25 05:23:50;;;;;;;25.95;18.07;;;;;;;;;;1732198;81;27525;-82
2021/05/25 05:26:16;;;;;;;21.07;16.42;;;;;;;11.78;75.49;96854.97;1730053;81;25635;-82
2021/05/25 05:28:43;;;;;;;22.42;13.83;;;;;;;11.74;75.42;96847.52;1730233;81;25600;-82
2021/05/25 05:31:09;;;;;;;16.42;12.33;;;;;;;11.76;75.56;96846.27;1738580;80;25963;-82
2021/05/25 05:33:36;;;;;;;17.07;13.22;;;;;;;11.82;75.68;96847.23;1729898;81;25758;-82
2021/05/25 05:36:04;;;;;;;18.10;13.40;;;;;;;11.90;75.79;96857.70;1729789;81;27443;-82
2021/05/25 05:38:30;;;;;;;20.35;14.07;;;;;;;11.97;75.84;96861.11;1734156;80;25714;-82
2021/05/25 05:41:04;;;;;;;18.90;11.88;;;;;;;12.04;75.98;96868.60;1741017;81;25659;-82
2021/05/25 05:43:25;;;;;;;14.45;9.65;;;;;;;12.09;76.02;96862.47;1749957;81;25588;-82
2021/05/25 05:45:52;;;;;;;14.70;9.50;;;;;;;12.14;75.95;96859.90;1752016;80;25761;-82
2021/05/25 05:48:19;;;;;;;15.13;8.35;;;;;;;12.21;75.80;96870.89;1764072;80;27504;-82
2021/05/25 05:50:46;;;;;;;15.85;8.25;;;;;;;12.28;75.75;96874.86;1751162;81;25721;-82
2021/05/25 05:53:12;;;;;;;11.20;7.30;;;;;;;12.35;75.89;96866.08;1756784;80;25597;-83
2021/05/25 05:55:39;;;;;;;10.55;7.42;;;;;;;12.35;75.65;96872.84;1725717;81;25599;-82
2021/05/25 05:58:07;;;;;;;10.08;6.28;;;;;;;12.40;75.70;96879.73;1722864;81;26201;-82
2021/05/25 06:00:33;;;;;;;7.28;6.05;;;;;;;12.46;75.53;96877.95;1722863;81;27599;-82
2021/05/25 06:03:00;;;;;;;8.45;4.70;;;;;;;12.51;75.38;96881.62;1722874;81;25583;-82
2021/05/25 06:05:27;;;;;;;7.87;4.40;;;;;;;12.51;75.00;96887.03;1736365;81;25247;-81
2021/05/25 06:07:54;;;;;;;5.90;4.30;;;;;;;12.49;74.85;96889.14;1747458;81;25847;-82
2021/05/25 06:10:20;;;;;;;7.03;4.37;;;;;;;12.52;74.81;96890.56;1743055;81;25681;-82
2021/05/25 06:12:47;;;;;;;9.18;4.85;;;;;;;12.54;74.77;96885.74;1724139;81;27313;-82
2021/05/25 06:15:14;;;;;;;10.98;5.17;;;;;;;12.53;74.80;96890.86;1722778;81;25691;-82
2021/05/25 06:17:41;;;;;;;5.72;4.30;;;;;;;12.50;74.97;96893.50;1739575;81;25658;-82
2021/05/25 06:20:09;;;;;;;5.80;4.67;;;;;;;12.52;75.04;96895.98;1722542;81;26275;-82
2021/05/25 06:22:36;;;;;;;11.15;5.33;;;;;;;12.55;75.13;96897.69;1723265;81;25670;-82
2021/05/25 06:25:03;;;;;;;8.43;5.53;;;;;;;12.54;75.24;96891.98;1730923;81;27354;-82
2021/05/25 06:27:30;;;;;;;9.98;5.90;;;;;;;12.55;75.33;96900.41;1731034;81;25536;-82
2021/05/25 06:29:56;;;;;;;10.70;5.80;;;;;;;12.57;75.46;96898.25;1731174;81;25654;-83
2021/05/25 06:32:23;;;;;;;13.98;5.97;;;;;;;12.60;75.49;96888.31;1731293;81;25776;-81
2021/05/25 06:34:51;;;;;;;9.13;5.95;;;;;;;12.64;75.66;96885.97;1740079;81;25709;-82
2021/05/25 06:37:18;;;;;;;7.92;5.10;;;;;;;12.68;75.69;96880.91;1731221;81;28006;-82
2021/05/25 06:39:44;;;;;;;8.08;4.72;;;;;;;12.75;75.74;96884.30;1731092;81;25699;-81
2021/05/25 06:42:14;;;;;;;6.78;5.00;;;;;;;12.79;75.65;96878.19;1731260;81;25228;-84
2021/05/25 06:44:41;;;;;;;10.43;5.80;;;;;;;12.86;75.55;96876.69;1749087;81;26073;-82
2021/05/25 06:47:08;;;;;;;9.25;5.92;;;;;;;12.95;75.55;96884.20;1740336;81;25671;-82
2021/05/25 06:49:34;;;;;;;11.93;8.15;;;;;;;13.05;75.47;96884.11;1746419;81;27482;-81
2021/05/25 06:52:01;;;;;;;10.40;5.60;;;;;;;13.13;75.39;96888.65;1752426;81;26202;-81
2021/05/25 06:54:29;;;;;;;7.15;5.03;;;;;;;13.22;75.28;96891.83;1731205;81;25615;-83
2021/05/25 06:56:56;;;;;;;7.37;4.70;;;;;;;13.31;75.24;96880.89;1752401;81;26175;-83
2021/05/25 06:59:22;;;;;;;5.85;4.10;;;;;;;13.39;75.31;96877.81;1731254;81;25661;-82
2021/05/25 07:01:49;;;;;;;6.42;4.58;;;;;;;13.52;75.40;96865.33;1750735;81;28106;-82
2021/05/25 07:04:16;;;;;;;7.42;6.17;;;;;;;13.63;75.24;96866.33;1740060;81;25630;-82
2021/05/25 07:06:42;;;;;;;8.25;6.03;;;;;;;13.78;75.26;96854.38;1761534;81;25760;-82
2021/05/25 07:09:09;;;;;;;11.28;6.15;;;;;;;13.91;75.09;96864.91;1735519;81;25701;-82
2021/05/25 07:11:35;;;;;;;12.55;6.40;;;;;;;14.01;74.75;96857.47;1745342;81;25838;-83
2021/05/25 07:14:02;;;;;;;8.88;5.33;;;;;;;14.08;74.67;96849.19;1738210;80;27315;-83
2021/05/25 07:16:29;;;;;;;9.90;5.15;;;;;;;14.14;74.35;96854.97;1731291;81;25796;-84
2021/05/25 07:18:57;;;;;;;14.58;6.15;;;;;;;14.21;74.43;96852.92;1731342;81;25651;-84
2021/05/25 07:21:23;;;;;;;12.95;6.33;;;;;;;14.30;74.54;96848.72;1704067;82;25785;-82
2021/05/25 07:23:50;;;;;;;11.78;6.28;;;;;;;14.38;74.50;96853.72;1729517;81;25603;-85
2021/05/25 07:26:19;;;;;;;10.53;5.45;;;;;;;14.43;74.38;96867.41;1728258;81;27387;-84
2021/05/25 07:28:45;;;;;;;8.45;4.83;;;;;;;14.48;74.16;96871.58;1746007;81;25806;-84
2021/05/25 07:31:12;;;;;;;7.37;4.72;;;;;;;14.49;73.97;96871.84;1744724;81;25344;-82
2021/05/25 07:33:38;;;;;;;6.17;4.17;;;;;;;14.41;74.07;96870.38;1753223;81;25691;-84
2021/05/25 07:36:06;;;;;;;7.72;3.77;;;;;;;14.39;74.17;96871.66;1731002;81;25757;-82
2021/05/25 07:38:32;;;;;;;5.35;4.03;;;;;;;14.43;74.21;96870.66;1741564;81;27348;-86
2021/05/25 07:40:59;;;;;;;7.67;4.67;;;;;;;14.51;74.13;96869.70;1740096;81;25651;-84
2021/05/25 07:43:26;;;;;;;8.13;5.37;;;;;;;14.63;73.98;96864.98;1728188;81;25593;-86
2021/05/25 07:45:53;;;;;;;7.45;4.72;;;;;;;14.76;74.16;96868.70;1728209;81;25691;-82
2021/05/25 07:48:20;;;;;;;8.18;4.05;;;;;;;14.92;74.20;96863.48;1737119;81;25638;-84
2021/05/25 07:50:46;;;;;;;9.03;4.25;;;;;;;15.00;74.10;96863.03;1741660;81;27293;-84
2021/05/25 07:53:13;;;;;;;7.65;4.28;;;;;;;14.98;73.85;96866.00;1749493;81;25677;-82
2021/05/25 07:55:40;;;;;;;5.45;3.72;;;;;;;15.05;73.78;96868.55;1728144;81;25703;-83
2021/05/25 07:58:06;;;;;;;4.42;3.40;;;;;;;15.10;73.67;96859.91;1728174;81;26199;-86
2021/05/25 08:00:33;;;;;;;7.15;3.15;;;;;;;15.13;73.62;96857.22;1740998;81;25676;-82
2021/05/25 08:03:00;;;;;;;4.20;3.50;;;;;;;15.32;73.75;96853.12;1758445;80;28069;-83
2021/05/25 08:05:32;;;;;;;6.50;3.37;;;;;;;15.58;73.38;96853.43;1748071;81;25620;-82
2021/05/25 08:07:56;;;;;;;6.40;3.30;;;;;;;15.70;72.84;96852.17;1727020;81;25725;-82
2021/05/25 08:10:24;;;;;;;5.22;3.58;;;;;;;15.81;72.81;96852.58;1736143;81;25634;-82
2021/05/25 08:12:50;;;;;;;6.00;3.08;;;;;;;15.95;72.61;96851.59;1758364;81;26427;-82
2021/05/25 08:15:19;;;;;;;4.08;3.40;;;;;;;16.11;72.09;96849.28;1752835;81;27337;-83
2021/05/25 08:17:52;;;;;;;5.47;3.60;;;;;;;16.24;71.44;96858.09;1743164;81;26829;-82
2021/05/25 08:20:19;;;;;;;6.40;3.42;;;;;;;16.35;71.09;96862.53;1757699;81;26493;-82
2021/05/25 08:22:52;;;;;;;5.35;3.17;;;;;;;16.44;70.95;96859.60;1758294;80;26364;-83
2021/05/25 08:25:26;;;;;;;5.65;3.10;;;;;;;16.43;70.72;96870.22;1737400;80;25726;-85
2021/05/25 08:27:55;;;;;;;6.85;3.58;;;;;;;16.34;70.75;96873.15;1729827;81;27984;-83
2021/05/25 08:30:26;;;;;;;5.62;3.20;;;;;;;16.32;70.53;96873.95;1738725;81;25721;-83
2021/05/25 08:32:54;;;;;;;4.42;3.75;;;;;;;16.27;70.54;96877.47;1738001;81;25594;-83
2021/05/25 08:35:22;;;;;;;6.47;4.15;;;;;;;16.17;70.84;96874.13;1756844;81;25946;-85
2021/05/25 08:37:53;;;;;;;6.58;3.85;;;;;;;16.14;70.94;96876.00;1764470;80;25697;-82
2021/05/25 08:40:20;;;;;;;5.97;3.77;;;;;;;16.04;71.03;96889.53;1773899;80;27348;-81
2021/05/25 08:42:47;;;;;;;8.28;4.12;;;;;;;16.02;71.11;96878.07;1773877;80;25866;-83
2021/05/25 08:45:15;;;;;;;6.58;3.92;;;;;;;16.03;71.42;96884.34;1773956;80;25563;-81
2021/05/25 08:47:42;;;;;;;5.22;3.40;;;;;;;16.09;71.37;96890.92;1773309;80;25323;-82
2021/05/25 08:50:13;;;;;;;5.58;2.95;;;;;;;16.15;70.87;96895.88;1761892;80;25681;-82
2021/05/25 08:52:39;;;;;;;4.08;2.83;;;;;;;16.19;70.22;96894.27;1760059;80;27346;-81
2021/05/25 08:55:09;;;;;;;3.60;2.67;;;;;;;16.26;69.82;96894.06;1759798;80;25676;-83
2021/05/25 08:57:36;;;;;;;5.50;3.40;;;;;;;16.28;69.72;96891.91;1760044;80;25707;-83
2021/05/25 09:00:07;;;;;;;5.12;3.15;;;;;;;16.26;69.71;96894.06;1769759;80;25384;-83
2021/05/25 09:02:34;;;;;;;5.62;3.05;;;;;;;16.25;69.18;96899.23;1773484;80;25581;-87
2021/05/25 09:05:11;;;;;;;4.70;2.75;;;;;;;16.24;68.76;96898.94;1772544;78;28012;-81
2021/05/25 09:07:59;;;;;;;6.10;2.55;;;;;;;16.19;68.27;96904.62;1785690;80;25712;-83
2021/05/25 09:10:37;;;;;;;4.25;2.92;;;;;;;16.16;67.84;96902.97;1726554;81;25627;-85
2021/05/25 09:13:17;;;;;;;8.00;3.50;;;;;;;16.13;67.57;96904.84;1726591;81;25683;-82
2021/05/25 09:15:48;;;;;;;6.87;3.30;;;;;;;16.09;67.52;96911.34;1726763;81;25618;-82
2021/05/25 09:18:27;;;;;;;9.20;3.58;;;;;;;16.08;67.50;96909.69;1725477;81;27370;-82
2021/05/25 09:20:59;;;;;;;6.72;2.95;;;;;;;16.08;67.37;96911.59;1726643;81;25663;-81
2021/05/25 09:23:43;;;;;;;10.70;3.80;;;;;;;16.05;67.14;96926.56;1726357;81;25639;-81
2021/05/25 09:26:14;;;;;;;5.17;3.83;;;;;;;16.02;67.28;96918.91;1752076;81;27436;-81
2021/05/25 09:29:02;;;;;;;8.35;3.83;;;;;;;15.95;67.07;96923.72;1721295;81;25670;-82
2021/05/25 09:31:48;;;;;;;7.17;3.45;;;;;;;15.92;67.12;96922.07;1722859;81;28108;-82
2021/05/25 09:34:23;;;;;;;10.78;3.72;;;;;;;15.77;67.11;96926.81;1722657;81;25747;-82
2021/05/25 09:37:09;;;;;;;8.60;4.45;;;;;;;15.66;67.34;96938.13;1740910;80;25808;-83
2021/05/25 09:39:53;;;;;;;7.72;4.12;;;;;;;15.58;67.27;96943.20;1726895;81;25375;-86
2021/05/25 09:42:20;;;;;;;6.17;3.72;;;;;;;15.47;67.29;96950.36;1722698;81;25648;-85
2021/05/25 09:45:08;;;;;;;14.18;4.30;;;;;;;15.42;67.44;96952.50;1727373;81;27316;-81
2021/05/25 09:47:48;;;;;;;5.58;4.05;;;;;;;15.38;67.54;96957.32;1734413;81;25291;-81
2021/05/25 09:50:17;;;;;;;4.87;3.27;;;;;;;15.07;67.75;96952.85;1722995;81;25729;-80
2021/05/25 09:53:20;;;;;;;6.33;3.27;;;;;;;14.94;68.17;96957.81;1743980;81;25569;-81
2021/05/25 09:56:00;;;;;;;6.47;3.27;;;;;;;14.84;68.31;96957.14;1725780;81;25709;-82
2021/05/25 09:58:38;;;;;;;4.40;2.80;;;;;;;14.74;68.54;96959.67;1722814;81;27383;-79
2021/05/25 10:01:08;;;;;;;5.35;3.77;;;;;;;14.63;68.76;96960.05;1722716;81;25730;-80
2021/05/25 10:03:53;;;;;;;5.45;3.40;;;;;;;14.61;69.10;96967.63;1722742;81;25776;-80
2021/05/25 10:06:19;;;;;;;5.67;3.55;;;;;;;14.58;69.15;96968.14;1723313;81;25647;-82
2021/05/25 10:08:49;;;;;;;3.67;3.05;;;;;;;14.47;69.22;96966.33;1722871;81;26255;-80
2021/05/25 10:11:17;;;;;;;3.90;2.47;;;;;;;14.36;69.55;96962.59;1722727;81;27325;-78
2021/05/25 10:13:45;;;;;;;3.50;2.72;;;;;;;14.29;69.60;96957.02;1722684;81;25710;-82
2021/05/25 10:16:15;;;;;;;3.77;2.55;;;;;;;14.35;69.59;96966.91;1722870;81;25563;-79
2021/05/25 10:21:13;;;;;;;3.40;2.80;;;;;;;14.49;69.37;96966.09;1730374;81;25213;-82
2021/05/25 10:23:43;;;;;;;2.90;1.80;;;;;;;14.49;69.33;96961.45;1722685;81;27334;-82
2021/05/25 10:26:19;;;;;;;3.33;2.02;;;;;;;14.51;69.01;96964.75;1725910;81;25602;-80
2021/05/25 10:28:50;;;;;;;4.35;2.00;;;;;;;14.55;68.94;96967.80;1733358;81;25665;-81
2021/05/25 10:31:43;;;;;;;4.72;1.45;;;;;;;14.56;68.84;96959.41;1771512;78;25983;-78
2021/05/25 10:34:17;;;;;;;1.70;1.50;;;;;;;14.57;68.66;96965.13;1764747;80;25559;-79
2021/05/25 10:36:53;;;;;;;1.80;1.70;;;;;;;14.62;68.66;96963.84;1764058;80;27333;-79
2021/05/25 10:39:37;;;;;;;6.45;2.00;;;;;;;14.66;68.65;96965.53;1780513;80;25597;-81
2021/05/25 10:42:31;;;;;;;2.10;1.85;;;;;;;14.66;69.21;96965.00;1769529;80;25707;-80
2021/05/25 10:45:14;;;;;;;2.77;1.72;;;;;;;14.70;69.15;96972.95;1756995;80;25633;-79
2021/05/25 10:48:06;;;;;;;2.30;1.85;;;;;;;14.71;69.43;96971.88;1763730;80;25696;-79
2021/05/25 10:50:37;;;;;;;2.20;1.70;;;;;;;14.72;69.20;96974.89;1757053;80;27355;-80
2021/05/25 10:53:05;;;;;;;3.27;2.00;;;;;;;14.69;69.43;96979.45;1770686;80;25633;-78
2021/05/25 10:55:42;;;;;;;2.40;2.15;;;;;;;14.68;69.49;96979.16;1768201;80;25638;-80
2021/05/25 10:58:29;;;;;;;6.28;2.20;;;;;;;14.63;69.14;96980.42;1743083;81;26519;-81
2021/05/25 11:00:54;;;;;;;5.33;1.85;;;;;;;14.62;69.13;96980.67;1756279;81;25481;-81
2021/05/25 11:03:21;;;;;;;5.95;1.90;;;;;;;14.63;69.27;96975.53;1722000;82;28270;-80
2021/05/25 11:05:58;;;;;;;3.77;1.90;;;;;;;14.61;68.97;96978.48;1731098;81;25757;-82
2021/05/25 11:08:32;;;;;;;3.27;1.87;;;;;;;14.63;69.25;96976.35;1731184;81;25694;-80
2021/05/25 11:11:15;;;;;;;3.67;2.10;;;;;;;14.62;69.60;96971.98;1730364;81;25662;-81
2021/05/25 11:13:48;;;;;;;3.15;2.17;;;;;;;14.65;70.02;96979.65;1731353;81;25642;-81
2021/05/25 11:16:37;;;;;;;3.27;2.45;;;;;;;14.68;70.26;96987.31;1731296;81;27340;-79
2021/05/25 11:19:12;;;;;;;3.05;2.55;;;;;;;14.73;70.09;96984.66;1730936;81;25735;-79
2021/05/25 11:24:58;;;;;;;3.72;2.77;;;;;;;14.78;70.17;96976.60;1731340;81;25768;-80
2021/05/25 11:27:43;;;;;;;4.37;2.87;;;;;;;14.75;69.87;96978.98;1749043;81;25633;-80
2021/05/25 11:30:24;;;;;;;3.12;2.62;;;;;;;14.80;69.67;96975.53;1726579;81;27617;-80
2021/05/25 11:32:56;;;;;;;5.97;2.60;;;;;;;14.81;69.26;96981.26;1726534;81;25629;-79
2021/05/25 11:35:26;;;;;;;3.33;2.50;;;;;;;14.80;68.96;96972.81;1726299;81;25671;-80
2021/05/25 11:37:58;;;;;;;3.77;3.27;;;;;;;14.79;68.80;96980.14;1726277;81;26233;-79
2021/05/25 11:40:30;;;;;;;7.53;3.00;;;;;;;14.82;68.87;96980.19;1726328;81;25609;-83
2021/05/25 11:42:57;;;;;;;5.42;3.37;;;;;;;14.76;69.06;96984.17;1725994;81;28126;-82
2021/05/25 11:45:26;;;;;;;7.40;3.80;;;;;;;14.71;69.09;96994.98;1726339;81;25931;-85
2021/05/25 11:47:59;;;;;;;9.95;6.35;;;;;;;14.68;69.23;96994.64;1726315;81;25734;-79
2021/05/25 11:50:27;;;;;;;12.88;7.47;;;;;;;14.62;69.37;97001.87;1726357;81;25684;-80